Etusivu
METAR-TAF:

METAR-TAF

Lentoasemat :

Fayette Regional Air Center

La Grange, Texas, Yhdysvallat

Leveyspiiri: 29-54-29N, Pituuspiiri: 096-57-00W, korkeus merenpinnasta: 99 m

Tämänhetkinen sää

Tämä raportti tehtiin 27 minuuttia sitten, kello 01.15 UTC
Tuuli 7 kn kaakosta
Lämpötila 20°C
Kosteus 100%
Ilmanpaine 1015 hPa
Näkyvyys: 16.1 km
Hajanaisia pilviä 1400 ft:n korkeudessa
Pilvistä 8000 ft:n korkeudessa

METAR: K3T5 080115Z AUTO 13007KT 10SM SCT014 OVC080 20/20 A2996 RMK AO2 T02020202 $

Aika: 19:42 (01:42 UTC)


TAF: puuttuu

Säähavainnot ja -ennusteet yli 4000 lentoasemalta (METAR- ja TAF-raportit).

Käytössä olevat sääasemat on merkitty karttaan keltaisilla ja punaisilla pisteillä.

Aseta hiiri pisteen päälle nähdäksesi sääaseman nimen.

Klikkaa sitten nähdäksesi säähavainnot ja -ennusteet.

Kartan vaihtaminen: klikkaa mustalla rastilla varustettuja vihreitä pisteitä, niin voit zoomata sisään; viivalla varustettua vihreää pistettä, niin voit zoomata ulos tai vihreitä nuolia, niin pääset viereisille kartoille.


METAR-TAF: